This demonstration page uses our WeatherBlox Daily Observations layout. Learn more.

Left ArrowRight Arrow

Hourly Observations for December 2, 2020

Temp ( °F °C ) Dew Point ( °F °C ) Humidity (%) Winds ( mph kmh ) Pressure ( in mb ) Visibility ( mi km ) Precip ( " mm )
12:51 am 00:51 Clear 43 6.1 9 -12.8 25 25 NNW 6 9 30.03 1017 10 16.0934 0 0
1:51 am 01:51 Clear 40 4.4 8 -13.3 27 27 SE 6 9 30.04 1017 10 16.0934 0 0
2:51 am 02:51 Clear 40 4.4 9 -12.8 28 28 Calm 30.04 1017 10 16.0934 0 0
3:51 am 03:51 Clear 36 2.2 9 -12.8 32 32 Calm 30.04 1017 10 16.0934 0 0
4:51 am 04:51 Clear 34 1.1 7 -13.9 32 32 Calm 30.06 1018 10 16.0934 0 0
5:51 am 05:51 Clear 32 0 7 -13.9 35 35 Calm 30.1 1019 10 16.0934 0 0
6:51 am 06:51 Clear 30 -1.1 5 -15 34 34 NE 6 9 30.12 1020 10 16.0934 0 0
7:51 am 07:51 Sunny 32 0 7 -13.9 35 35 ESE 5 7 30.15 1021 10 16.0934 0 0
8:51 am 08:51 Sunny 45 7.2 8 -13.3 22 22 ESE 10 17 30.15 1021 10 16.0934 0 0
9:51 am 09:51 Sunny 50 10 8 -13.3 18 18 ESE 13 20 30.14 1021 10 16.0934 0 0
10:51 am 10:51 Sunny 53 11.7 11 -11.7 18 18 SSE 8 13 30.12 1020 10 16.0934 0 0
11:51 am 11:51 Sunny 54 12.2 10 -12.2 17 17 ESE 6 9 30.1 1019 10 16.0934 0 0
12:51 pm 12:51 Sunny 56 13.3 9 -12.8 15 15 VRB 6 9 30.07 1018 10 16.0934 0 0
1:51 pm 13:51 Sunny 59 15 10 -12.2 14 14 SSE 10 17 30.05 1018 10 16.0934 0 0
2:51 pm 14:51 Sunny 58 14.4 13 -10.6 17 17 S 8 13 30.05 1018 10 16.0934 0 0
3:51 pm 15:51 Sunny 58 14.4 16 -8.9 19 19 S 8 13 30.05 1018 10 16.0934 0 0
4:51 pm 16:51 Sunny 56 13.3 16 -8.9 21 21 ESE 7 11 30.07 1018 10 16.0934 0 0
5:51 pm 17:51 Clear 51 10.6 18 -7.8 27 27 ESE 10 17 30.1 1019 10 16.0934 0 0
6:51 pm 18:51 Clear 49 9.4 18 -7.8 29 29 E 9 15 30.13 1020 10 16.0934 0 0
7:51 pm 19:51 Clear 47 8.3 19 -7.2 33 33 SSE 5 7 30.16 1021 10 16.0934 0 0
8:51 pm 20:51 Clear 46 7.8 19 -7.2 34 34 ESE 9 15 30.17 1022 10 16.0934 0 0
9:51 pm 21:51 Cloudy 47 8.3 20 -6.7 34 34 SE 10 17 30.19 1022 10 16.0934 0 0
10:51 pm 22:51 Cloudy 46 7.8 19 -7.2 34 34 SSE 8 13 30.2 1023 10 16.0934 0 0
11:51 pm 23:51 Cloudy 45 7.2 19 -7.2 35 35 S 13 20 30.2 1023 10 16.0934 0 0

Powered by AerisWeather